sensor_id;sensor_type;location;lat;lon;timestamp;pressure;altitude;pressure_sealevel;temperature;humidity
62725;BME280;49026;52.600;4.694;2022-08-14T00:00:32;101269.00;;;21.19;45.23
62725;BME280;49026;52.600;4.694;2022-08-14T00:02:58;101263.56;;;21.20;44.99
62725;BME280;49026;52.600;4.694;2022-08-14T00:05:31;101253.22;;;21.16;44.63
62725;BME280;49026;52.600;4.694;2022-08-14T00:08:00;101260.28;;;21.17;46.91
62725;BME280;49026;52.600;4.694;2022-08-14T00:10:28;101257.59;;;21.17;45.02
62725;BME280;49026;52.600;4.694;2022-08-14T00:12:55;101252.84;;;21.09;45.01
62725;BME280;49026;52.600;4.694;2022-08-14T00:15:29;101250.53;;;21.04;44.96
62725;BME280;49026;52.600;4.694;2022-08-14T00:17:56;101255.25;;;21.01;44.69
62725;BME280;49026;52.600;4.694;2022-08-14T00:20:25;101246.53;;;20.99;44.94
62725;BME280;49026;52.600;4.694;2022-08-14T00:22:51;101242.03;;;20.99;45.85
62725;BME280;49026;52.600;4.694;2022-08-14T00:25:17;101245.53;;;21.00;46.28
62725;BME280;49026;52.600;4.694;2022-08-14T00:27:42;101244.56;;;21.01;45.46
62725;BME280;49026;52.600;4.694;2022-08-14T00:30:11;101247.59;;;20.96;46.80
62725;BME280;49026;52.600;4.694;2022-08-14T00:32:38;101244.31;;;20.92;45.91
62725;BME280;49026;52.600;4.694;2022-08-14T00:35:06;101241.88;;;20.89;46.25
62725;BME280;49026;52.600;4.694;2022-08-14T00:37:32;101232.31;;;20.87;47.15
62725;BME280;49026;52.600;4.694;2022-08-14T00:40:00;101233.03;;;20.89;49.54
62725;BME280;49026;52.600;4.694;2022-08-14T00:42:26;101231.09;;;20.91;47.58
62725;BME280;49026;52.600;4.694;2022-08-14T00:44:53;101225.97;;;20.88;47.08
62725;BME280;49026;52.600;4.694;2022-08-14T00:47:19;101220.91;;;20.85;46.75
62725;BME280;49026;52.600;4.694;2022-08-14T00:49:49;101226.72;;;20.90;47.67
62725;BME280;49026;52.600;4.694;2022-08-14T00:52:15;101213.38;;;20.90;48.35
62725;BME280;49026;52.600;4.694;2022-08-14T00:54:42;101208.75;;;20.92;50.43
62725;BME280;49026;52.600;4.694;2022-08-14T00:57:09;101219.19;;;20.95;47.63
62725;BME280;49026;52.600;4.694;2022-08-14T00:59:35;101213.09;;;20.93;48.24
62725;BME280;49026;52.600;4.694;2022-08-14T01:02:02;101217.38;;;20.96;49.64
62725;BME280;49026;52.600;4.694;2022-08-14T01:04:28;101206.81;;;20.94;49.61
62725;BME280;49026;52.600;4.694;2022-08-14T01:06:59;101209.13;;;20.99;48.95
62725;BME280;49026;52.600;4.694;2022-08-14T01:09:25;101203.53;;;21.02;48.34
62725;BME280;49026;52.600;4.694;2022-08-14T01:11:52;101204.38;;;21.02;47.78
62725;BME280;49026;52.600;4.694;2022-08-14T01:14:21;101198.44;;;20.99;48.46
62725;BME280;49026;52.600;4.694;2022-08-14T01:16:47;101194.94;;;20.98;48.57
62725;BME280;49026;52.600;4.694;2022-08-14T01:19:13;101194.78;;;21.00;48.03
62725;BME280;49026;52.600;4.694;2022-08-14T01:21:58;101188.00;;;20.96;47.77
62725;BME280;49026;52.600;4.694;2022-08-14T01:24:24;101178.38;;;20.93;49.80
62725;BME280;49026;52.600;4.694;2022-08-14T01:26:50;101183.72;;;20.93;47.70
62725;BME280;49026;52.600;4.694;2022-08-14T01:29:18;101179.59;;;20.89;48.57
62725;BME280;49026;52.600;4.694;2022-08-14T01:31:45;101167.09;;;20.89;49.11
62725;BME280;49026;52.600;4.694;2022-08-14T01:34:14;101169.16;;;20.86;49.43
62725;BME280;49026;52.600;4.694;2022-08-14T01:36:53;101174.50;;;20.86;48.82
62725;BME280;49026;52.600;4.694;2022-08-14T01:39:24;101158.84;;;20.81;49.34
62725;BME280;49026;52.600;4.694;2022-08-14T01:41:50;101160.06;;;20.77;48.37
62725;BME280;49026;52.600;4.694;2022-08-14T01:44:30;101160.41;;;20.72;48.38
62725;BME280;49026;52.600;4.694;2022-08-14T01:46:59;101160.63;;;20.69;49.82
62725;BME280;49026;52.600;4.694;2022-08-14T01:49:26;101149.34;;;20.66;48.43
62725;BME280;49026;52.600;4.694;2022-08-14T01:51:52;101156.41;;;20.67;49.35
62725;BME280;49026;52.600;4.694;2022-08-14T01:54:23;101146.16;;;20.61;48.30
62725;BME280;49026;52.600;4.694;2022-08-14T01:56:54;101147.28;;;20.58;48.97
62725;BME280;49026;52.600;4.694;2022-08-14T01:59:26;101148.22;;;20.57;51.74
62725;BME280;49026;52.600;4.694;2022-08-14T02:02:02;101151.63;;;20.59;50.51
62725;BME280;49026;52.600;4.694;2022-08-14T02:04:37;101152.59;;;20.58;50.97
62725;BME280;49026;52.600;4.694;2022-08-14T02:07:07;101153.56;;;20.57;49.61
62725;BME280;49026;52.600;4.694;2022-08-14T02:09:35;101140.22;;;20.57;50.99
62725;BME280;49026;52.600;4.694;2022-08-14T02:12:05;101146.50;;;20.56;50.12
62725;BME280;49026;52.600;4.694;2022-08-14T02:14:31;101136.81;;;20.55;50.73
62725;BME280;49026;52.600;4.694;2022-08-14T02:16:57;101137.06;;;20.52;49.01
62725;BME280;49026;52.600;4.694;2022-08-14T02:19:25;101125.78;;;20.48;49.41
62725;BME280;49026;52.600;4.694;2022-08-14T02:21:54;101131.94;;;20.49;51.66
62725;BME280;49026;52.600;4.694;2022-08-14T02:24:22;101124.66;;;20.51;51.85
62725;BME280;49026;52.600;4.694;2022-08-14T02:26:51;101124.66;;;20.51;49.99
62725;BME280;49026;52.600;4.694;2022-08-14T02:29:20;101128.44;;;20.48;49.28
62725;BME280;49026;52.600;4.694;2022-08-14T02:31:52;101131.94;;;20.49;51.36
62725;BME280;49026;52.600;4.694;2022-08-14T02:34:20;101130.13;;;20.49;50.24
62725;BME280;49026;52.600;4.694;2022-08-14T02:36:48;101131.94;;;20.49;51.88
62725;BME280;49026;52.600;4.694;2022-08-14T02:39:15;101126.63;;;20.49;51.49
62725;BME280;49026;52.600;4.694;2022-08-14T02:41:41;101126.63;;;20.49;49.59
62725;BME280;49026;52.600;4.694;2022-08-14T02:44:08;101129.63;;;20.44;49.48
62725;BME280;49026;52.600;4.694;2022-08-14T02:46:37;101119.06;;;20.43;50.91
62725;BME280;49026;52.600;4.694;2022-08-14T02:49:03;101123.91;;;20.38;49.97
62725;BME280;49026;52.600;4.694;2022-08-14T02:51:31;101127.56;;;20.36;50.18
62725;BME280;49026;52.600;4.694;2022-08-14T02:53:56;101126.09;;;20.32;50.61
62725;BME280;49026;52.600;4.694;2022-08-14T02:56:26;101123.78;;;20.28;51.18
62725;BME280;49026;52.600;4.694;2022-08-14T02:58:53;101118.06;;;20.21;50.37
62725;BME280;49026;52.600;4.694;2022-08-14T03:01:23;101109.56;;;20.16;51.82
62725;BME280;49026;52.600;4.694;2022-08-14T03:03:49;101115.13;;;20.13;50.55
62725;BME280;49026;52.600;4.694;2022-08-14T03:06:17;101117.94;;;20.11;50.61
62725;BME280;49026;52.600;4.694;2022-08-14T03:08:45;101108.31;;;20.09;52.04
62725;BME280;49026;52.600;4.694;2022-08-14T03:11:11;101112.22;;;20.05;50.43
62725;BME280;49026;52.600;4.694;2022-08-14T03:13:39;101107.34;;;19.98;51.53
62725;BME280;49026;52.600;4.694;2022-08-14T03:16:08;101107.78;;;19.92;50.88
62725;BME280;49026;52.600;4.694;2022-08-14T03:18:36;101101.94;;;19.87;51.62
62725;BME280;49026;52.600;4.694;2022-08-14T03:21:07;101095.28;;;19.82;50.42
62725;BME280;49026;52.600;4.694;2022-08-14T03:23:34;101100.84;;;19.78;50.97
62725;BME280;49026;52.600;4.694;2022-08-14T03:26:03;101100.22;;;19.75;51.95
62725;BME280;49026;52.600;4.694;2022-08-14T03:28:29;101092.31;;;19.73;51.63
62725;BME280;49026;52.600;4.694;2022-08-14T03:30:57;101090.81;;;19.69;52.73
62725;BME280;49026;52.600;4.694;2022-08-14T03:33:23;101091.91;;;19.67;53.61
62725;BME280;49026;52.600;4.694;2022-08-14T03:35:48;101084.88;;;19.66;51.96
62725;BME280;49026;52.600;4.694;2022-08-14T03:38:16;101086.81;;;19.63;51.74
62725;BME280;49026;52.600;4.694;2022-08-14T03:40:43;101085.09;;;19.62;52.97
62725;BME280;49026;52.600;4.694;2022-08-14T03:43:09;101080.84;;;19.60;52.13
62725;BME280;49026;52.600;4.694;2022-08-14T03:45:36;101080.84;;;19.60;51.66
62725;BME280;49026;52.600;4.694;2022-08-14T03:48:10;101078.28;;;19.58;52.14
62725;BME280;49026;52.600;4.694;2022-08-14T03:50:40;101077.47;;;19.58;53.60
62725;BME280;49026;52.600;4.694;2022-08-14T03:53:09;101066.16;;;19.54;54.32
62725;BME280;49026;52.600;4.694;2022-08-14T03:55:36;101067.03;;;19.55;53.46
62725;BME280;49026;52.600;4.694;2022-08-14T03:58:04;101067.75;;;19.57;52.21
62725;BME280;49026;52.600;4.694;2022-08-14T04:00:29;101074.03;;;19.56;53.77
62725;BME280;49026;52.600;4.694;2022-08-14T04:02:57;101068.69;;;19.56;53.14
62725;BME280;49026;52.600;4.694;2022-08-14T04:05:22;101064.56;;;19.52;52.14
62725;BME280;49026;52.600;4.694;2022-08-14T04:07:48;101061.28;;;19.48;52.96
62725;BME280;49026;52.600;4.694;2022-08-14T04:10:13;101064.69;;;19.50;54.27
62725;BME280;49026;52.600;4.694;2022-08-14T04:12:38;101062.88;;;19.51;53.02
62725;BME280;49026;52.600;4.694;2022-08-14T04:15:04;101064.69;;;19.50;56.08
62725;BME280;49026;52.600;4.694;2022-08-14T04:17:31;101061.81;;;19.53;55.37
62725;BME280;49026;52.600;4.694;2022-08-14T04:19:57;101052.94;;;19.53;53.12
62725;BME280;49026;52.600;4.694;2022-08-14T04:22:27;101059.13;;;19.53;56.12
62725;BME280;49026;52.600;4.694;2022-08-14T04:24:53;101055.25;;;19.57;54.29
62725;BME280;49026;52.600;4.694;2022-08-14T04:27:21;101061.56;;;19.56;53.58
62725;BME280;49026;52.600;4.694;2022-08-14T04:29:47;101060.81;;;19.54;55.21
62725;BME280;49026;52.600;4.694;2022-08-14T04:32:12;101057.19;;;19.55;55.13
62725;BME280;49026;52.600;4.694;2022-08-14T04:34:39;101057.09;;;19.57;54.73
62725;BME280;49026;52.600;4.694;2022-08-14T04:37:07;101054.31;;;19.58;55.26
62725;BME280;49026;52.600;4.694;2022-08-14T04:39:55;101057.81;;;19.59;55.58
62725;BME280;49026;52.600;4.694;2022-08-14T04:42:40;101050.44;;;19.62;57.61
62725;BME280;49026;52.600;4.694;2022-08-14T04:45:26;101055.53;;;19.66;58.10
62725;BME280;49026;52.600;4.694;2022-08-14T04:48:00;101047.31;;;19.69;55.45
62725;BME280;49026;52.600;4.694;2022-08-14T04:50:50;101058.72;;;19.71;56.35
62725;BME280;49026;52.600;4.694;2022-08-14T04:53:18;101054.91;;;19.75;55.81
62725;BME280;49026;52.600;4.694;2022-08-14T04:55:46;101051.13;;;19.77;56.35
62725;BME280;49026;52.600;4.694;2022-08-14T04:58:23;101055.41;;;19.80;56.01
62725;BME280;49026;52.600;4.694;2022-08-14T05:00:50;101054.19;;;19.84;57.82
62725;BME280;49026;52.600;4.694;2022-08-14T05:03:20;101060.16;;;19.99;57.70
62725;BME280;49026;52.600;4.694;2022-08-14T05:05:49;101057.81;;;20.30;68.88
62725;BME280;49026;52.600;4.694;2022-08-14T05:08:17;101058.06;;;20.49;57.41
62725;BME280;49026;52.600;4.694;2022-08-14T05:10:46;101050.06;;;20.61;56.06
62725;BME280;49026;52.600;4.694;2022-08-14T05:13:11;101046.31;;;20.52;55.80
62725;BME280;49026;52.600;4.694;2022-08-14T05:15:40;101040.72;;;20.66;56.51
62725;BME280;49026;52.600;4.694;2022-08-14T05:18:10;101033.06;;;20.84;57.29
62725;BME280;49026;52.600;4.694;2022-08-14T05:20:42;101032.31;;;21.05;56.04
62725;BME280;49026;52.600;4.694;2022-08-14T05:23:15;101032.59;;;21.34;55.62
62725;BME280;49026;52.600;4.694;2022-08-14T05:25:43;101035.06;;;21.58;55.49
62725;BME280;49026;52.600;4.694;2022-08-14T05:28:14;101028.19;;;21.77;54.75
62725;BME280;49026;52.600;4.694;2022-08-14T05:31:04;101025.38;;;21.99;58.36
62725;BME280;49026;52.600;4.694;2022-08-14T05:33:34;101024.78;;;22.17;54.10
62725;BME280;49026;52.600;4.694;2022-08-14T05:36:02;101020.81;;;22.32;53.61
62725;BME280;49026;52.600;4.694;2022-08-14T05:38:32;101019.84;;;22.43;54.80
62725;BME280;49026;52.600;4.694;2022-08-14T05:41:03;101021.03;;;22.50;53.88
62725;BME280;49026;52.600;4.694;2022-08-14T05:43:31;101024.16;;;22.55;53.31
62725;BME280;49026;52.600;4.694;2022-08-14T05:45:57;101016.56;;;22.61;53.19
62725;BME280;49026;52.600;4.694;2022-08-14T05:48:23;101016.28;;;22.64;53.52
62725;BME280;49026;52.600;4.694;2022-08-14T05:50:50;101009.22;;;22.63;53.47
62725;BME280;49026;52.600;4.694;2022-08-14T05:53:15;101009.75;;;22.56;54.84
62725;BME280;49026;52.600;4.694;2022-08-14T05:55:41;101007.63;;;22.50;54.96
62725;BME280;49026;52.600;4.694;2022-08-14T05:58:07;101006.06;;;22.48;54.62
62725;BME280;49026;52.600;4.694;2022-08-14T06:00:38;101001.94;;;22.34;55.60
62725;BME280;49026;52.600;4.694;2022-08-14T06:03:06;101003.69;;;22.24;56.14
62725;BME280;49026;52.600;4.694;2022-08-14T06:05:35;101002.50;;;22.16;55.59
62725;BME280;49026;52.600;4.694;2022-08-14T06:08:03;101004.47;;;22.14;55.70
62725;BME280;49026;52.600;4.694;2022-08-14T06:10:30;101003.63;;;22.14;54.92
62725;BME280;49026;52.600;4.694;2022-08-14T06:12:58;101003.06;;;22.10;55.52
62725;BME280;49026;52.600;4.694;2022-08-14T06:15:27;100997.97;;;22.07;56.62
62725;BME280;49026;52.600;4.694;2022-08-14T06:17:53;100996.56;;;22.13;55.95
62725;BME280;49026;52.600;4.694;2022-08-14T06:20:20;100999.56;;;22.19;56.04
62725;BME280;49026;52.600;4.694;2022-08-14T06:22:49;100995.25;;;22.28;55.80
62725;BME280;49026;52.600;4.694;2022-08-14T06:25:15;101005.06;;;22.39;55.80
62725;BME280;49026;52.600;4.694;2022-08-14T06:27:43;100993.50;;;22.48;56.10
62725;BME280;49026;52.600;4.694;2022-08-14T06:30:22;101010.19;;;22.62;55.78
62725;BME280;49026;52.600;4.694;2022-08-14T06:32:48;101008.38;;;22.72;56.33
62725;BME280;49026;52.600;4.694;2022-08-14T06:35:14;101003.06;;;22.82;56.17
62725;BME280;49026;52.600;4.694;2022-08-14T06:37:43;101005.63;;;22.93;55.70
62725;BME280;49026;52.600;4.694;2022-08-14T06:40:13;101005.22;;;22.98;57.54
62725;BME280;49026;52.600;4.694;2022-08-14T06:42:40;100999.31;;;23.04;56.41
62725;BME280;49026;52.600;4.694;2022-08-14T06:45:06;100998.63;;;23.11;55.98
62725;BME280;49026;52.600;4.694;2022-08-14T06:47:36;101000.63;;;23.19;56.51
62725;BME280;49026;52.600;4.694;2022-08-14T06:50:04;100998.94;;;23.38;55.86
62725;BME280;49026;52.600;4.694;2022-08-14T06:52:32;101006.81;;;23.59;55.26
62725;BME280;49026;52.600;4.694;2022-08-14T06:55:00;101002.88;;;23.82;55.09
62725;BME280;49026;52.600;4.694;2022-08-14T06:57:34;101002.16;;;23.90;55.81
62725;BME280;49026;52.600;4.694;2022-08-14T07:00:00;101006.38;;;24.02;55.33
62725;BME280;49026;52.600;4.694;2022-08-14T07:02:25;101003.22;;;24.17;55.29
62725;BME280;49026;52.600;4.694;2022-08-14T07:05:09;101004.84;;;24.37;54.98
62725;BME280;49026;52.600;4.694;2022-08-14T07:07:53;100999.56;;;24.46;54.31
62725;BME280;49026;52.600;4.694;2022-08-14T07:10:18;100999.25;;;24.49;54.10
62725;BME280;49026;52.600;4.694;2022-08-14T07:12:46;100992.22;;;24.57;53.97
62725;BME280;49026;52.600;4.694;2022-08-14T07:15:12;100989.44;;;24.67;54.11
62725;BME280;49026;52.600;4.694;2022-08-14T07:17:48;100991.41;;;24.93;54.15
62725;BME280;49026;52.600;4.694;2022-08-14T07:20:13;100987.44;;;25.15;54.02
62725;BME280;49026;52.600;4.694;2022-08-14T07:22:41;100986.47;;;25.34;53.87
62725;BME280;49026;52.600;4.694;2022-08-14T07:25:08;100996.16;;;25.45;53.64
62725;BME280;49026;52.600;4.694;2022-08-14T07:27:38;101002.13;;;25.57;53.97
62725;BME280;49026;52.600;4.694;2022-08-14T07:30:04;101007.25;;;25.68;53.57
62725;BME280;49026;52.600;4.694;2022-08-14T07:32:29;101000.88;;;25.69;53.39
62725;BME280;49026;52.600;4.694;2022-08-14T07:34:54;100989.31;;;25.77;53.59
62725;BME280;49026;52.600;4.694;2022-08-14T07:37:20;100988.34;;;25.78;53.47
62725;BME280;49026;52.600;4.694;2022-08-14T07:39:45;100987.00;;;25.82;53.06
62725;BME280;49026;52.600;4.694;2022-08-14T07:42:13;100986.59;;;25.95;53.64
62725;BME280;49026;52.600;4.694;2022-08-14T07:44:41;100987.88;;;26.09;53.16
62725;BME280;49026;52.600;4.694;2022-08-14T07:47:09;100988.72;;;26.09;53.13
62725;BME280;49026;52.600;4.694;2022-08-14T07:49:34;100991.94;;;26.13;53.06
62725;BME280;49026;52.600;4.694;2022-08-14T07:52:00;100990.72;;;26.07;52.88
62725;BME280;49026;52.600;4.694;2022-08-14T07:54:26;100989.78;;;26.16;53.08
62725;BME280;49026;52.600;4.694;2022-08-14T07:56:52;100989.38;;;26.37;52.63
62725;BME280;49026;52.600;4.694;2022-08-14T07:59:19;100996.97;;;26.42;52.43
62725;BME280;49026;52.600;4.694;2022-08-14T08:01:48;100995.31;;;26.49;52.46
62725;BME280;49026;52.600;4.694;2022-08-14T08:04:14;100987.56;;;26.54;52.26
62725;BME280;49026;52.600;4.694;2022-08-14T08:06:40;100984.97;;;26.71;52.45
62725;BME280;49026;52.600;4.694;2022-08-14T08:09:07;100983.84;;;26.82;51.53
62725;BME280;49026;52.600;4.694;2022-08-14T08:11:34;100972.69;;;26.85;51.30
62725;BME280;49026;52.600;4.694;2022-08-14T08:14:02;100977.47;;;26.99;51.39
62725;BME280;49026;52.600;4.694;2022-08-14T08:16:32;100977.63;;;27.06;50.96
62725;BME280;49026;52.600;4.694;2022-08-14T08:19:00;100960.31;;;27.16;50.96
62725;BME280;49026;52.600;4.694;2022-08-14T08:21:25;100957.97;;;27.30;50.62
62725;BME280;49026;52.600;4.694;2022-08-14T08:23:51;100962.84;;;27.43;50.46
62725;BME280;49026;52.600;4.694;2022-08-14T08:26:18;100963.69;;;27.51;50.24
62725;BME280;49026;52.600;4.694;2022-08-14T08:28:54;100960.47;;;27.56;49.88
62725;BME280;49026;52.600;4.694;2022-08-14T08:31:20;100951.72;;;27.62;49.71
62725;BME280;49026;52.600;4.694;2022-08-14T08:33:50;100954.72;;;27.84;50.25
62725;BME280;49026;52.600;4.694;2022-08-14T08:36:16;100952.34;;;27.97;49.29
62725;BME280;49026;52.600;4.694;2022-08-14T08:38:41;100953.97;;;28.15;50.12
62725;BME280;49026;52.600;4.694;2022-08-14T08:41:10;100944.03;;;28.46;50.40
62725;BME280;49026;52.600;4.694;2022-08-14T08:43:36;100945.63;;;28.72;49.52
62725;BME280;49026;52.600;4.694;2022-08-14T08:46:08;100942.13;;;28.87;49.72
62725;BME280;49026;52.600;4.694;2022-08-14T08:48:47;100937.94;;;28.84;48.88
62725;BME280;49026;52.600;4.694;2022-08-14T08:56:44;100938.19;;;28.97;48.71
62725;BME280;49026;52.600;4.694;2022-08-14T08:59:26;100932.59;;;28.99;48.95
62725;BME280;49026;52.600;4.694;2022-08-14T09:01:58;100937.91;;;28.92;48.17
62725;BME280;49026;52.600;4.694;2022-08-14T09:04:32;100935.84;;;28.94;47.87
62725;BME280;49026;52.600;4.694;2022-08-14T09:06:58;100946.38;;;28.89;48.27
62725;BME280;49026;52.600;4.694;2022-08-14T09:09:28;100943.53;;;29.06;48.09
62725;BME280;49026;52.600;4.694;2022-08-14T09:11:56;100945.16;;;29.38;48.36
62725;BME280;49026;52.600;4.694;2022-08-14T09:14:25;100947.72;;;29.54;47.34
62725;BME280;49026;52.600;4.694;2022-08-14T09:16:54;100935.50;;;29.73;47.08
62725;BME280;49026;52.600;4.694;2022-08-14T09:19:20;100941.06;;;29.80;47.10
62725;BME280;49026;52.600;4.694;2022-08-14T09:21:45;100934.91;;;29.86;46.74
62725;BME280;49026;52.600;4.694;2022-08-14T09:24:11;100941.22;;;29.79;46.79
62725;BME280;49026;52.600;4.694;2022-08-14T09:26:37;100932.69;;;29.67;46.31
62725;BME280;49026;52.600;4.694;2022-08-14T09:29:04;100927.38;;;29.59;46.53
62725;BME280;49026;52.600;4.694;2022-08-14T09:31:32;100929.41;;;29.56;46.63
62725;BME280;49026;52.600;4.694;2022-08-14T09:34:10;100926.28;;;29.68;46.88
62725;BME280;49026;52.600;4.694;2022-08-14T09:36:48;100920.63;;;29.92;46.62
62725;BME280;49026;52.600;4.694;2022-08-14T09:42:38;100921.88;;;30.26;44.50
62725;BME280;49026;52.600;4.694;2022-08-14T09:45:14;100919.81;;;30.28;45.21
62725;BME280;49026;52.600;4.694;2022-08-14T09:52:57;100912.91;;;30.77;45.16
62725;BME280;49026;52.600;4.694;2022-08-14T09:55:24;100914.66;;;30.85;44.82
62725;BME280;49026;52.600;4.694;2022-08-14T09:57:50;100909.41;;;30.83;44.97
62725;BME280;49026;52.600;4.694;2022-08-14T10:00:40;100901.72;;;30.65;40.24
62725;BME280;49026;52.600;4.694;2022-08-14T10:03:06;100903.97;;;30.62;44.31
62725;BME280;49026;52.600;4.694;2022-08-14T10:05:35;100891.09;;;30.64;44.53
62725;BME280;49026;52.600;4.694;2022-08-14T10:08:04;100886.50;;;30.86;44.67
62725;BME280;49026;52.600;4.694;2022-08-14T10:10:40;100901.59;;;31.17;44.61
62725;BME280;49026;52.600;4.694;2022-08-14T10:13:07;100885.81;;;31.27;43.95
62725;BME280;49026;52.600;4.694;2022-08-14T10:15:44;100884.56;;;31.51;44.40
62725;BME280;49026;52.600;4.694;2022-08-14T10:18:14;100884.78;;;31.85;43.94
62725;BME280;49026;52.600;4.694;2022-08-14T10:20:43;100879.25;;;32.06;43.64
62725;BME280;49026;52.600;4.694;2022-08-14T10:23:17;100867.41;;;32.27;43.38
62725;BME280;49026;52.600;4.694;2022-08-14T10:25:48;100865.53;;;32.28;42.84
62725;BME280;49026;52.600;4.694;2022-08-14T10:28:22;100865.97;;;32.38;40.50
62725;BME280;49026;52.600;4.694;2022-08-14T10:30:49;100876.84;;;32.38;41.51
62725;BME280;49026;52.600;4.694;2022-08-14T10:33:29;100864.22;;;32.10;41.59
62725;BME280;49026;52.600;4.694;2022-08-14T10:35:56;100859.13;;;32.01;41.62
62725;BME280;49026;52.600;4.694;2022-08-14T10:38:34;100852.84;;;32.00;41.59
62725;BME280;49026;52.600;4.694;2022-08-14T10:41:16;100852.34;;;32.25;41.52
62725;BME280;49026;52.600;4.694;2022-08-14T10:43:43;100851.09;;;32.34;40.91
62725;BME280;49026;52.600;4.694;2022-08-14T10:46:17;100849.66;;;32.38;40.50
62725;BME280;49026;52.600;4.694;2022-08-14T10:49:00;100846.78;;;32.53;38.09
62725;BME280;49026;52.600;4.694;2022-08-14T10:51:29;100845.91;;;32.46;39.23
62725;BME280;49026;52.600;4.694;2022-08-14T10:53:56;100842.94;;;32.34;38.87
62725;BME280;49026;52.600;4.694;2022-08-14T10:56:32;100838.16;;;32.36;39.27
62725;BME280;49026;52.600;4.694;2022-08-14T10:59:04;100837.50;;;32.34;35.32
62725;BME280;49026;52.600;4.694;2022-08-14T11:01:31;100828.53;;;32.40;39.66
62725;BME280;49026;52.600;4.694;2022-08-14T11:03:56;100828.56;;;32.54;39.20
62725;BME280;49026;52.600;4.694;2022-08-14T11:06:22;100823.13;;;32.54;38.57
62725;BME280;49026;52.600;4.694;2022-08-14T11:08:48;100830.25;;;32.48;38.77
62725;BME280;49026;52.600;4.694;2022-08-14T11:11:15;100819.50;;;32.20;38.27
62725;BME280;49026;52.600;4.694;2022-08-14T11:13:42;100826.38;;;32.16;38.26
62725;BME280;49026;52.600;4.694;2022-08-14T11:16:09;100815.75;;;32.27;38.54
62725;BME280;49026;52.600;4.694;2022-08-14T11:18:35;100815.41;;;32.64;34.87
62725;BME280;49026;52.600;4.694;2022-08-14T11:21:01;100816.25;;;32.78;37.70
62725;BME280;49026;52.600;4.694;2022-08-14T11:23:31;100823.38;;;32.99;38.15
62725;BME280;49026;52.600;4.694;2022-08-14T11:25:59;100829.00;;;33.11;37.16
62725;BME280;49026;52.600;4.694;2022-08-14T11:28:26;100804.09;;;33.07;37.07
62725;BME280;49026;52.600;4.694;2022-08-14T11:30:53;100823.38;;;32.92;36.23
62725;BME280;49026;52.600;4.694;2022-08-14T11:33:25;100821.06;;;32.69;36.18
62725;BME280;49026;52.600;4.694;2022-08-14T11:35:53;100813.28;;;32.59;36.67
62725;BME280;49026;52.600;4.694;2022-08-14T11:38:18;100815.00;;;32.74;36.70
62725;BME280;49026;52.600;4.694;2022-08-14T11:40:46;100814.81;;;32.95;36.65
62725;BME280;49026;52.600;4.694;2022-08-14T11:43:11;100814.38;;;32.92;36.08
62725;BME280;49026;52.600;4.694;2022-08-14T11:45:39;100813.75;;;33.10;36.04
62725;BME280;49026;52.600;4.694;2022-08-14T11:48:21;100821.06;;;33.29;32.52
62725;BME280;49026;52.600;4.694;2022-08-14T11:50:48;100812.91;;;33.29;36.00
62725;BME280;49026;52.600;4.694;2022-08-14T11:53:25;100821.66;;;33.38;35.26
62725;BME280;49026;52.600;4.694;2022-08-14T11:56:02;100812.22;;;33.47;33.55
62725;BME280;49026;52.600;4.694;2022-08-14T11:58:30;100812.00;;;33.49;35.62
62725;BME280;49026;52.600;4.694;2022-08-14T12:00:58;100814.06;;;33.67;34.68
62725;BME280;49026;52.600;4.694;2022-08-14T12:06:09;100803.19;;;34.12;34.78
62725;BME280;49026;52.600;4.694;2022-08-14T12:08:35;100802.75;;;34.22;35.11
62725;BME280;49026;52.600;4.694;2022-08-14T12:11:06;100806.25;;;34.29;35.15
62725;BME280;49026;52.600;4.694;2022-08-14T12:13:32;100797.41;;;34.65;34.84
62725;BME280;49026;52.600;4.694;2022-08-14T12:16:04;100796.59;;;34.90;34.30
62725;BME280;49026;52.600;4.694;2022-08-14T12:18:36;100798.28;;;35.10;34.52
62725;BME280;49026;52.600;4.694;2022-08-14T12:21:22;100802.19;;;35.20;34.04
62725;BME280;49026;52.600;4.694;2022-08-14T12:24:08;100788.19;;;35.35;34.56
62725;BME280;49026;52.600;4.694;2022-08-14T12:26:36;100792.25;;;35.44;33.84
62725;BME280;49026;52.600;4.694;2022-08-14T12:29:16;100784.06;;;35.44;34.32
62725;BME280;49026;52.600;4.694;2022-08-14T12:31:42;100775.19;;;35.31;34.31
62725;BME280;49026;52.600;4.694;2022-08-14T12:34:12;100776.13;;;35.18;34.15
62725;BME280;49026;52.600;4.694;2022-08-14T12:36:40;100763.22;;;35.06;33.48
62725;BME280;49026;52.600;4.694;2022-08-14T12:39:18;100755.19;;;35.12;29.60
62725;BME280;49026;52.600;4.694;2022-08-14T12:41:54;100756.84;;;34.94;29.00
62725;BME280;49026;52.600;4.694;2022-08-14T12:44:40;100743.59;;;35.16;31.01
62725;BME280;49026;52.600;4.694;2022-08-14T12:47:13;100741.41;;;35.25;29.75
62725;BME280;49026;52.600;4.694;2022-08-14T12:49:53;100731.72;;;35.29;32.00
62725;BME280;49026;52.600;4.694;2022-08-14T12:52:33;100736.88;;;35.37;31.83
62725;BME280;49026;52.600;4.694;2022-08-14T12:55:00;100740.88;;;35.53;33.42
62725;BME280;49026;52.600;4.694;2022-08-14T12:57:34;100738.19;;;35.65;28.22
62725;BME280;49026;52.600;4.694;2022-08-14T13:00:14;100733.81;;;35.83;32.08
62725;BME280;49026;52.600;4.694;2022-08-14T13:02:42;100717.34;;;36.01;31.42
62725;BME280;49026;52.600;4.694;2022-08-14T13:05:11;100715.31;;;36.08;30.23
62725;BME280;49026;52.600;4.694;2022-08-14T13:07:40;100718.81;;;36.15;29.38
62725;BME280;49026;52.600;4.694;2022-08-14T13:10:10;100708.75;;;36.28;30.58
62725;BME280;49026;52.600;4.694;2022-08-14T13:12:39;100702.69;;;36.26;30.81
62725;BME280;49026;52.600;4.694;2022-08-14T13:15:09;100703.16;;;36.34;30.89
62725;BME280;49026;52.600;4.694;2022-08-14T13:17:48;100707.59;;;36.47;28.66